sensor_id;sensor_type;location;lat;lon;timestamp;P1;durP1;ratioP1;P2;durP2;ratioP2
41275;SDS011;27010;47.718;12.912;2023-04-03T00:02:32;8.67;;;6.97;;
41275;SDS011;27010;47.718;12.912;2023-04-03T00:05:34;8.50;;;7.20;;
41275;SDS011;27010;47.718;12.912;2023-04-03T00:08:37;9.77;;;7.83;;
41275;SDS011;27010;47.718;12.912;2023-04-03T00:11:40;10.67;;;7.10;;
41275;SDS011;27010;47.718;12.912;2023-04-03T00:14:42;9.37;;;7.30;;
41275;SDS011;27010;47.718;12.912;2023-04-03T00:17:44;8.73;;;7.00;;
41275;SDS011;27010;47.718;12.912;2023-04-03T00:20:47;10.87;;;6.90;;
41275;SDS011;27010;47.718;12.912;2023-04-03T00:23:49;9.43;;;6.83;;
41275;SDS011;27010;47.718;12.912;2023-04-03T00:26:51;8.40;;;6.57;;
41275;SDS011;27010;47.718;12.912;2023-04-03T00:29:53;10.00;;;7.87;;
41275;SDS011;27010;47.718;12.912;2023-04-03T00:32:55;11.17;;;6.97;;
41275;SDS011;27010;47.718;12.912;2023-04-03T00:35:58;13.77;;;8.00;;
41275;SDS011;27010;47.718;12.912;2023-04-03T00:39:00;9.83;;;7.10;;
41275;SDS011;27010;47.718;12.912;2023-04-03T00:42:02;11.40;;;8.30;;
41275;SDS011;27010;47.718;12.912;2023-04-03T00:48:07;10.63;;;6.93;;
41275;SDS011;27010;47.718;12.912;2023-04-03T00:51:14;9.57;;;7.43;;
41275;SDS011;27010;47.718;12.912;2023-04-03T00:54:19;9.77;;;7.57;;
41275;SDS011;27010;47.718;12.912;2023-04-03T00:57:22;10.17;;;7.23;;
41275;SDS011;27010;47.718;12.912;2023-04-03T01:00:24;8.50;;;6.77;;
41275;SDS011;27010;47.718;12.912;2023-04-03T01:03:26;13.23;;;7.30;;
41275;SDS011;27010;47.718;12.912;2023-04-03T01:06:29;8.43;;;6.50;;
41275;SDS011;27010;47.718;12.912;2023-04-03T01:09:36;8.60;;;6.20;;
41275;SDS011;27010;47.718;12.912;2023-04-03T01:12:39;7.63;;;6.03;;
41275;SDS011;27010;47.718;12.912;2023-04-03T01:15:47;7.80;;;6.37;;
41275;SDS011;27010;47.718;12.912;2023-04-03T01:18:49;7.80;;;6.37;;
41275;SDS011;27010;47.718;12.912;2023-04-03T01:25:28;7.93;;;6.17;;
41275;SDS011;27010;47.718;12.912;2023-04-03T01:28:34;11.50;;;7.43;;
41275;SDS011;27010;47.718;12.912;2023-04-03T01:34:49;7.03;;;5.70;;
41275;SDS011;27010;47.718;12.912;2023-04-03T01:37:51;7.70;;;5.77;;
41275;SDS011;27010;47.718;12.912;2023-04-03T01:40:53;9.83;;;6.13;;
41275;SDS011;27010;47.718;12.912;2023-04-03T01:43:55;8.03;;;6.27;;
41275;SDS011;27010;47.718;12.912;2023-04-03T01:46:57;7.73;;;5.90;;
41275;SDS011;27010;47.718;12.912;2023-04-03T01:49:59;7.77;;;5.60;;
41275;SDS011;27010;47.718;12.912;2023-04-03T01:53:01;7.77;;;5.97;;
41275;SDS011;27010;47.718;12.912;2023-04-03T01:56:03;8.13;;;5.37;;
41275;SDS011;27010;47.718;12.912;2023-04-03T01:59:06;7.40;;;5.50;;
41275;SDS011;27010;47.718;12.912;2023-04-03T02:02:08;7.00;;;5.60;;
41275;SDS011;27010;47.718;12.912;2023-04-03T02:05:10;6.70;;;5.07;;
41275;SDS011;27010;47.718;12.912;2023-04-03T02:08:12;8.70;;;6.30;;
41275;SDS011;27010;47.718;12.912;2023-04-03T02:11:14;6.67;;;5.23;;
41275;SDS011;27010;47.718;12.912;2023-04-03T02:14:16;8.63;;;5.70;;
41275;SDS011;27010;47.718;12.912;2023-04-03T02:17:18;7.47;;;5.53;;
41275;SDS011;27010;47.718;12.912;2023-04-03T02:20:21;5.60;;;4.67;;
41275;SDS011;27010;47.718;12.912;2023-04-03T02:23:23;7.20;;;5.20;;
41275;SDS011;27010;47.718;12.912;2023-04-03T02:26:25;6.27;;;5.27;;
41275;SDS011;27010;47.718;12.912;2023-04-03T02:29:28;6.27;;;4.93;;
41275;SDS011;27010;47.718;12.912;2023-04-03T02:32:30;7.00;;;4.80;;
41275;SDS011;27010;47.718;12.912;2023-04-03T02:35:32;6.93;;;5.23;;
41275;SDS011;27010;47.718;12.912;2023-04-03T02:38:34;8.33;;;6.13;;
41275;SDS011;27010;47.718;12.912;2023-04-03T02:41:37;7.10;;;5.10;;
41275;SDS011;27010;47.718;12.912;2023-04-03T02:44:39;7.80;;;5.20;;
41275;SDS011;27010;47.718;12.912;2023-04-03T02:47:41;7.20;;;5.37;;
41275;SDS011;27010;47.718;12.912;2023-04-03T02:50:43;8.17;;;5.87;;
41275;SDS011;27010;47.718;12.912;2023-04-03T02:53:46;8.27;;;5.27;;
41275;SDS011;27010;47.718;12.912;2023-04-03T02:56:48;5.93;;;5.07;;
41275;SDS011;27010;47.718;12.912;2023-04-03T02:59:51;9.60;;;5.90;;
41275;SDS011;27010;47.718;12.912;2023-04-03T03:02:53;7.27;;;5.20;;
41275;SDS011;27010;47.718;12.912;2023-04-03T03:06:02;9.13;;;5.47;;
41275;SDS011;27010;47.718;12.912;2023-04-03T03:09:11;7.07;;;5.00;;
41275;SDS011;27010;47.718;12.912;2023-04-03T03:12:14;6.53;;;5.17;;
41275;SDS011;27010;47.718;12.912;2023-04-03T03:15:16;7.70;;;5.70;;
41275;SDS011;27010;47.718;12.912;2023-04-03T03:18:21;7.70;;;5.73;;
41275;SDS011;27010;47.718;12.912;2023-04-03T03:21:23;10.90;;;6.23;;
41275;SDS011;27010;47.718;12.912;2023-04-03T03:24:25;6.97;;;5.43;;
41275;SDS011;27010;47.718;12.912;2023-04-03T03:27:27;6.40;;;5.10;;
41275;SDS011;27010;47.718;12.912;2023-04-03T03:30:30;8.17;;;5.80;;
41275;SDS011;27010;47.718;12.912;2023-04-03T03:33:32;7.30;;;5.70;;
41275;SDS011;27010;47.718;12.912;2023-04-03T03:36:34;8.47;;;6.33;;
41275;SDS011;27010;47.718;12.912;2023-04-03T03:39:37;8.60;;;6.27;;
41275;SDS011;27010;47.718;12.912;2023-04-03T03:42:39;9.30;;;6.40;;
41275;SDS011;27010;47.718;12.912;2023-04-03T03:45:41;8.30;;;6.57;;
41275;SDS011;27010;47.718;12.912;2023-04-03T03:48:43;8.33;;;6.77;;
41275;SDS011;27010;47.718;12.912;2023-04-03T03:51:45;9.10;;;6.30;;
41275;SDS011;27010;47.718;12.912;2023-04-03T03:54:48;8.20;;;5.93;;
41275;SDS011;27010;47.718;12.912;2023-04-03T03:57:50;9.03;;;6.67;;
41275;SDS011;27010;47.718;12.912;2023-04-03T04:00:53;7.03;;;5.70;;
41275;SDS011;27010;47.718;12.912;2023-04-03T04:03:59;7.50;;;6.27;;
41275;SDS011;27010;47.718;12.912;2023-04-03T04:07:02;7.53;;;6.47;;
41275;SDS011;27010;47.718;12.912;2023-04-03T04:10:05;8.77;;;6.00;;
41275;SDS011;27010;47.718;12.912;2023-04-03T04:13:07;9.30;;;6.27;;
41275;SDS011;27010;47.718;12.912;2023-04-03T04:16:09;7.00;;;5.73;;
41275;SDS011;27010;47.718;12.912;2023-04-03T04:19:14;8.97;;;6.83;;
41275;SDS011;27010;47.718;12.912;2023-04-03T04:22:16;8.93;;;6.53;;
41275;SDS011;27010;47.718;12.912;2023-04-03T04:25:18;7.53;;;6.47;;
41275;SDS011;27010;47.718;12.912;2023-04-03T04:28:20;7.80;;;5.93;;
41275;SDS011;27010;47.718;12.912;2023-04-03T04:31:22;7.33;;;6.20;;
41275;SDS011;27010;47.718;12.912;2023-04-03T04:34:24;9.67;;;5.93;;
41275;SDS011;27010;47.718;12.912;2023-04-03T04:37:26;7.67;;;5.77;;
41275;SDS011;27010;47.718;12.912;2023-04-03T04:40:28;7.90;;;5.63;;
41275;SDS011;27010;47.718;12.912;2023-04-03T04:43:31;7.67;;;5.80;;
41275;SDS011;27010;47.718;12.912;2023-04-03T04:46:33;7.33;;;5.73;;
41275;SDS011;27010;47.718;12.912;2023-04-03T04:49:35;9.03;;;7.27;;
41275;SDS011;27010;47.718;12.912;2023-04-03T04:52:37;10.53;;;6.73;;
41275;SDS011;27010;47.718;12.912;2023-04-03T04:55:39;9.03;;;6.80;;
41275;SDS011;27010;47.718;12.912;2023-04-03T04:58:42;10.53;;;7.00;;
41275;SDS011;27010;47.718;12.912;2023-04-03T05:01:44;10.80;;;6.63;;
41275;SDS011;27010;47.718;12.912;2023-04-03T05:04:46;9.97;;;7.63;;
41275;SDS011;27010;47.718;12.912;2023-04-03T05:07:48;10.20;;;7.97;;
41275;SDS011;27010;47.718;12.912;2023-04-03T05:10:50;10.73;;;7.80;;
41275;SDS011;27010;47.718;12.912;2023-04-03T05:13:56;10.23;;;7.47;;
41275;SDS011;27010;47.718;12.912;2023-04-03T05:16:58;11.37;;;8.50;;
41275;SDS011;27010;47.718;12.912;2023-04-03T05:20:00;13.40;;;8.03;;
41275;SDS011;27010;47.718;12.912;2023-04-03T05:23:02;9.90;;;7.60;;
41275;SDS011;27010;47.718;12.912;2023-04-03T05:26:04;14.47;;;9.13;;
41275;SDS011;27010;47.718;12.912;2023-04-03T05:29:07;10.87;;;7.97;;
41275;SDS011;27010;47.718;12.912;2023-04-03T05:32:10;11.20;;;8.13;;
41275;SDS011;27010;47.718;12.912;2023-04-03T05:35:12;9.13;;;7.73;;
41275;SDS011;27010;47.718;12.912;2023-04-03T05:38:15;10.60;;;8.10;;
41275;SDS011;27010;47.718;12.912;2023-04-03T05:41:17;9.57;;;7.23;;
41275;SDS011;27010;47.718;12.912;2023-04-03T05:44:19;9.70;;;7.70;;
41275;SDS011;27010;47.718;12.912;2023-04-03T05:47:21;11.03;;;7.60;;
41275;SDS011;27010;47.718;12.912;2023-04-03T05:50:24;9.67;;;8.13;;
41275;SDS011;27010;47.718;12.912;2023-04-03T05:53:29;9.27;;;7.43;;
41275;SDS011;27010;47.718;12.912;2023-04-03T05:56:33;10.93;;;8.33;;
41275;SDS011;27010;47.718;12.912;2023-04-03T05:59:35;10.00;;;7.73;;
41275;SDS011;27010;47.718;12.912;2023-04-03T06:02:37;11.23;;;6.90;;
41275;SDS011;27010;47.718;12.912;2023-04-03T06:05:40;9.67;;;7.67;;
41275;SDS011;27010;47.718;12.912;2023-04-03T06:08:44;7.43;;;6.53;;
41275;SDS011;27010;47.718;12.912;2023-04-03T06:11:46;10.20;;;6.70;;
41275;SDS011;27010;47.718;12.912;2023-04-03T06:14:48;10.50;;;6.87;;
41275;SDS011;27010;47.718;12.912;2023-04-03T06:17:50;9.43;;;6.47;;
41275;SDS011;27010;47.718;12.912;2023-04-03T06:20:52;10.20;;;6.60;;
41275;SDS011;27010;47.718;12.912;2023-04-03T06:23:54;11.27;;;6.90;;
41275;SDS011;27010;47.718;12.912;2023-04-03T06:26:56;8.87;;;6.57;;
41275;SDS011;27010;47.718;12.912;2023-04-03T06:29:58;7.73;;;6.40;;
41275;SDS011;27010;47.718;12.912;2023-04-03T06:33:00;10.33;;;6.60;;
41275;SDS011;27010;47.718;12.912;2023-04-03T06:36:03;8.93;;;6.00;;
41275;SDS011;27010;47.718;12.912;2023-04-03T06:39:06;7.97;;;6.67;;
41275;SDS011;27010;47.718;12.912;2023-04-03T06:42:08;8.33;;;6.63;;
41275;SDS011;27010;47.718;12.912;2023-04-03T06:45:11;7.57;;;6.20;;
41275;SDS011;27010;47.718;12.912;2023-04-03T06:48:13;8.73;;;6.67;;
41275;SDS011;27010;47.718;12.912;2023-04-03T06:51:23;7.60;;;6.27;;
41275;SDS011;27010;47.718;12.912;2023-04-03T06:54:27;6.70;;;5.13;;
41275;SDS011;27010;47.718;12.912;2023-04-03T06:57:29;9.50;;;6.17;;
41275;SDS011;27010;47.718;12.912;2023-04-03T07:00:31;8.50;;;6.17;;
41275;SDS011;27010;47.718;12.912;2023-04-03T07:03:33;7.13;;;5.23;;
41275;SDS011;27010;47.718;12.912;2023-04-03T07:06:36;7.13;;;5.63;;
41275;SDS011;27010;47.718;12.912;2023-04-03T07:09:38;5.37;;;4.57;;
41275;SDS011;27010;47.718;12.912;2023-04-03T07:12:40;6.33;;;4.67;;
41275;SDS011;27010;47.718;12.912;2023-04-03T07:15:43;7.40;;;5.40;;
41275;SDS011;27010;47.718;12.912;2023-04-03T07:18:45;5.17;;;4.43;;
41275;SDS011;27010;47.718;12.912;2023-04-03T07:21:48;5.70;;;4.43;;
41275;SDS011;27010;47.718;12.912;2023-04-03T07:24:50;5.80;;;4.70;;
41275;SDS011;27010;47.718;12.912;2023-04-03T07:27:52;6.10;;;4.30;;
41275;SDS011;27010;47.718;12.912;2023-04-03T07:31:03;5.90;;;4.23;;
41275;SDS011;27010;47.718;12.912;2023-04-03T07:34:07;5.27;;;4.53;;
41275;SDS011;27010;47.718;12.912;2023-04-03T07:37:10;4.73;;;3.63;;
41275;SDS011;27010;47.718;12.912;2023-04-03T07:40:12;5.20;;;4.30;;
41275;SDS011;27010;47.718;12.912;2023-04-03T07:43:14;4.60;;;4.17;;
41275;SDS011;27010;47.718;12.912;2023-04-03T07:46:18;5.50;;;4.40;;
41275;SDS011;27010;47.718;12.912;2023-04-03T07:49:20;5.97;;;4.10;;
41275;SDS011;27010;47.718;12.912;2023-04-03T07:52:25;4.93;;;4.20;;
41275;SDS011;27010;47.718;12.912;2023-04-03T07:55:27;6.50;;;4.17;;
41275;SDS011;27010;47.718;12.912;2023-04-03T07:58:29;5.20;;;4.10;;
41275;SDS011;27010;47.718;12.912;2023-04-03T08:01:32;5.73;;;4.57;;
41275;SDS011;27010;47.718;12.912;2023-04-03T08:04:35;5.63;;;3.80;;
41275;SDS011;27010;47.718;12.912;2023-04-03T08:07:38;5.37;;;4.20;;
41275;SDS011;27010;47.718;12.912;2023-04-03T08:10:41;5.63;;;3.57;;
41275;SDS011;27010;47.718;12.912;2023-04-03T08:13:43;4.80;;;3.95;;
41275;SDS011;27010;47.718;12.912;2023-04-03T08:16:45;8.40;;;4.17;;
41275;SDS011;27010;47.718;12.912;2023-04-03T08:19:48;7.97;;;3.80;;
41275;SDS011;27010;47.718;12.912;2023-04-03T08:22:51;4.70;;;4.20;;
41275;SDS011;27010;47.718;12.912;2023-04-03T08:25:52;6.87;;;3.63;;
41275;SDS011;27010;47.718;12.912;2023-04-03T08:28:54;4.07;;;3.60;;
41275;SDS011;27010;47.718;12.912;2023-04-03T08:31:57;5.40;;;3.70;;
41275;SDS011;27010;47.718;12.912;2023-04-03T08:34:59;4.80;;;3.27;;
41275;SDS011;27010;47.718;12.912;2023-04-03T08:38:01;4.67;;;3.57;;
41275;SDS011;27010;47.718;12.912;2023-04-03T08:41:11;4.60;;;3.50;;
41275;SDS011;27010;47.718;12.912;2023-04-03T08:47:58;3.50;;;3.20;;
41275;SDS011;27010;47.718;12.912;2023-04-03T08:51:04;6.20;;;3.70;;
41275;SDS011;27010;47.718;12.912;2023-04-03T08:54:19;4.10;;;3.43;;
41275;SDS011;27010;47.718;12.912;2023-04-03T08:57:36;4.07;;;3.43;;
41275;SDS011;27010;47.718;12.912;2023-04-03T09:00:46;4.10;;;3.70;;
41275;SDS011;27010;47.718;12.912;2023-04-03T09:03:53;5.10;;;4.10;;
41275;SDS011;27010;47.718;12.912;2023-04-03T09:06:57;4.23;;;3.50;;
41275;SDS011;27010;47.718;12.912;2023-04-03T09:10:04;3.70;;;3.23;;
41275;SDS011;27010;47.718;12.912;2023-04-03T09:13:15;3.63;;;3.10;;
41275;SDS011;27010;47.718;12.912;2023-04-03T09:26:55;3.77;;;3.27;;
41275;SDS011;27010;47.718;12.912;2023-04-03T09:30:01;5.00;;;2.77;;
41275;SDS011;27010;47.718;12.912;2023-04-03T09:33:04;5.47;;;3.40;;
41275;SDS011;27010;47.718;12.912;2023-04-03T09:36:08;4.20;;;2.83;;
41275;SDS011;27010;47.718;12.912;2023-04-03T09:39:15;5.40;;;3.40;;
41275;SDS011;27010;47.718;12.912;2023-04-03T09:42:22;4.17;;;3.17;;
41275;SDS011;27010;47.718;12.912;2023-04-03T09:45:35;3.73;;;2.70;;
41275;SDS011;27010;47.718;12.912;2023-04-03T09:48:37;3.70;;;2.77;;
41275;SDS011;27010;47.718;12.912;2023-04-03T09:51:41;3.17;;;2.40;;
41275;SDS011;27010;47.718;12.912;2023-04-03T09:54:43;2.97;;;2.67;;
41275;SDS011;27010;47.718;12.912;2023-04-03T09:57:45;3.93;;;3.17;;
41275;SDS011;27010;47.718;12.912;2023-04-03T10:00:53;4.20;;;3.20;;
41275;SDS011;27010;47.718;12.912;2023-04-03T10:04:08;3.93;;;3.20;;
41275;SDS011;27010;47.718;12.912;2023-04-03T10:07:28;6.20;;;3.30;;
41275;SDS011;27010;47.718;12.912;2023-04-03T10:10:35;4.10;;;3.17;;
41275;SDS011;27010;47.718;12.912;2023-04-03T10:13:56;4.30;;;2.97;;
41275;SDS011;27010;47.718;12.912;2023-04-03T10:20:47;3.67;;;2.67;;
41275;SDS011;27010;47.718;12.912;2023-04-03T10:24:14;6.57;;;2.80;;
41275;SDS011;27010;47.718;12.912;2023-04-03T10:31:03;3.27;;;2.57;;
41275;SDS011;27010;47.718;12.912;2023-04-03T10:34:23;3.57;;;2.43;;
41275;SDS011;27010;47.718;12.912;2023-04-03T10:37:29;2.83;;;2.53;;
41275;SDS011;27010;47.718;12.912;2023-04-03T10:47:12;2.83;;;2.53;;
41275;SDS011;27010;47.718;12.912;2023-04-03T10:50:23;2.47;;;2.27;;
41275;SDS011;27010;47.718;12.912;2023-04-03T10:59:51;4.90;;;3.07;;
41275;SDS011;27010;47.718;12.912;2023-04-03T11:02:57;3.27;;;2.97;;
41275;SDS011;27010;47.718;12.912;2023-04-03T11:06:04;3.97;;;2.67;;
41275;SDS011;27010;47.718;12.912;2023-04-03T11:09:15;3.63;;;3.30;;
41275;SDS011;27010;47.718;12.912;2023-04-03T11:12:26;3.87;;;3.50;;
41275;SDS011;27010;47.718;12.912;2023-04-03T11:15:34;6.53;;;3.47;;
41275;SDS011;27010;47.718;12.912;2023-04-03T11:18:39;5.57;;;3.37;;
41275;SDS011;27010;47.718;12.912;2023-04-03T11:21:45;4.97;;;3.23;;
41275;SDS011;27010;47.718;12.912;2023-04-03T11:25:03;3.70;;;3.37;;
41275;SDS011;27010;47.718;12.912;2023-04-03T11:28:13;6.07;;;3.70;;
41275;SDS011;27010;47.718;12.912;2023-04-03T11:34:48;5.00;;;3.33;;
41275;SDS011;27010;47.718;12.912;2023-04-03T11:37:52;4.33;;;3.83;;
41275;SDS011;27010;47.718;12.912;2023-04-03T11:40:55;5.73;;;3.10;;
41275;SDS011;27010;47.718;12.912;2023-04-03T11:44:03;2.90;;;2.60;;
41275;SDS011;27010;47.718;12.912;2023-04-03T11:47:08;5.20;;;3.23;;
41275;SDS011;27010;47.718;12.912;2023-04-03T11:50:30;5.03;;;3.47;;
41275;SDS011;27010;47.718;12.912;2023-04-03T11:53:42;4.70;;;3.43;;
41275;SDS011;27010;47.718;12.912;2023-04-03T11:56:45;3.80;;;3.40;;
41275;SDS011;27010;47.718;12.912;2023-04-03T11:59:48;4.80;;;3.23;;
41275;SDS011;27010;47.718;12.912;2023-04-03T12:02:50;3.80;;;3.27;;
41275;SDS011;27010;47.718;12.912;2023-04-03T12:12:33;3.67;;;2.93;;
41275;SDS011;27010;47.718;12.912;2023-04-03T12:18:44;3.40;;;3.10;;
41275;SDS011;27010;47.718;12.912;2023-04-03T12:25:00;3.73;;;3.30;;
41275;SDS011;27010;47.718;12.912;2023-04-03T12:28:41;4.80;;;3.10;;
41275;SDS011;27010;47.718;12.912;2023-04-03T12:32:09;2.63;;;2.40;;
41275;SDS011;27010;47.718;12.912;2023-04-03T12:38:46;5.53;;;2.97;;
41275;SDS011;27010;47.718;12.912;2023-04-03T12:41:58;3.90;;;2.63;;
41275;SDS011;27010;47.718;12.912;2023-04-03T12:45:15;2.87;;;2.57;;
41275;SDS011;27010;47.718;12.912;2023-04-03T12:48:26;3.97;;;2.47;;
41275;SDS011;27010;47.718;12.912;2023-04-03T12:51:42;2.50;;;2.20;;
41275;SDS011;27010;47.718;12.912;2023-04-03T12:54:48;3.27;;;2.37;;
41275;SDS011;27010;47.718;12.912;2023-04-03T12:57:51;4.23;;;2.50;;
41275;SDS011;27010;47.718;12.912;2023-04-03T13:01:04;3.57;;;2.70;;
41275;SDS011;27010;47.718;12.912;2023-04-03T13:04:12;4.43;;;2.43;;
41275;SDS011;27010;47.718;12.912;2023-04-03T13:10:59;3.67;;;2.40;;
41275;SDS011;27010;47.718;12.912;2023-04-03T13:14:04;3.33;;;2.40;;
41275;SDS011;27010;47.718;12.912;2023-04-03T13:17:12;2.97;;;2.37;;
41275;SDS011;27010;47.718;12.912;2023-04-03T13:20:20;5.13;;;2.20;;
41275;SDS011;27010;47.718;12.912;2023-04-03T13:23:31;3.60;;;2.57;;
41275;SDS011;27010;47.718;12.912;2023-04-03T13:26:34;2.30;;;2.10;;
41275;SDS011;27010;47.718;12.912;2023-04-03T13:29:37;2.13;;;1.90;;
41275;SDS011;27010;47.718;12.912;2023-04-03T13:32:40;3.13;;;2.37;;
41275;SDS011;27010;47.718;12.912;2023-04-03T13:35:45;2.33;;;2.13;;
41275;SDS011;27010;47.718;12.912;2023-04-03T13:38:59;4.90;;;2.20;;
41275;SDS011;27010;47.718;12.912;2023-04-03T13:42:24;5.70;;;2.40;;
41275;SDS011;27010;47.718;12.912;2023-04-03T13:45:28;2.97;;;2.10;;
41275;SDS011;27010;47.718;12.912;2023-04-03T13:49:16;3.20;;;2.17;;
41275;SDS011;27010;47.718;12.912;2023-04-03T13:52:00;2.70;;;2.03;;
41275;SDS011;27010;47.718;12.912;2023-04-03T13:55:15;2.53;;;1.90;;
41275;SDS011;27010;47.718;12.912;2023-04-03T13:58:28;3.30;;;2.00;;
41275;SDS011;27010;47.718;12.912;2023-04-03T14:01:38;3.27;;;2.10;;
41275;SDS011;27010;47.718;12.912;2023-04-03T14:07:59;3.57;;;2.00;;
41275;SDS011;27010;47.718;12.912;2023-04-03T14:11:03;4.97;;;2.37;;
41275;SDS011;27010;47.718;12.912;2023-04-03T14:14:09;2.23;;;1.90;;
41275;SDS011;27010;47.718;12.912;2023-04-03T14:17:19;3.17;;;2.20;;
41275;SDS011;27010;47.718;12.912;2023-04-03T14:20:26;3.43;;;2.07;;
41275;SDS011;27010;47.718;12.912;2023-04-03T14:23:28;3.43;;;2.40;;
41275;SDS011;27010;47.718;12.912;2023-04-03T14:26:30;3.63;;;2.37;;
41275;SDS011;27010;47.718;12.912;2023-04-03T14:29:32;3.73;;;2.03;;
41275;SDS011;27010;47.718;12.912;2023-04-03T14:32:34;2.87;;;2.03;;
41275;SDS011;27010;47.718;12.912;2023-04-03T14:35:37;3.13;;;2.07;;
41275;SDS011;27010;47.718;12.912;2023-04-03T14:38:39;10.23;;;6.97;;
41275;SDS011;27010;47.718;12.912;2023-04-03T14:41:41;2.70;;;2.07;;
41275;SDS011;27010;47.718;12.912;2023-04-03T14:44:44;4.17;;;1.93;;
41275;SDS011;27010;47.718;12.912;2023-04-03T14:47:48;2.03;;;1.53;;
41275;SDS011;27010;47.718;12.912;2023-04-03T14:50:52;2.03;;;1.40;;
41275;SDS011;27010;47.718;12.912;2023-04-03T14:54:09;5.03;;;2.43;;
41275;SDS011;27010;47.718;12.912;2023-04-03T14:57:15;5.93;;;3.00;;
41275;SDS011;27010;47.718;12.912;2023-04-03T15:00:19;3.23;;;2.10;;
41275;SDS011;27010;47.718;12.912;2023-04-03T15:03:22;2.50;;;1.80;;
41275;SDS011;27010;47.718;12.912;2023-04-03T15:06:25;4.20;;;1.67;;
41275;SDS011;27010;47.718;12.912;2023-04-03T15:09:27;4.50;;;2.23;;
41275;SDS011;27010;47.718;12.912;2023-04-03T15:12:30;5.60;;;2.23;;
41275;SDS011;27010;47.718;12.912;2023-04-03T15:15:32;2.57;;;1.87;;
41275;SDS011;27010;47.718;12.912;2023-04-03T15:18:37;3.60;;;2.23;;
41275;SDS011;27010;47.718;12.912;2023-04-03T15:21:39;3.00;;;2.37;;
41275;SDS011;27010;47.718;12.912;2023-04-03T15:24:42;2.40;;;2.20;;
41275;SDS011;27010;47.718;12.912;2023-04-03T15:27:44;4.60;;;2.40;;
41275;SDS011;27010;47.718;12.912;2023-04-03T15:30:46;3.30;;;2.40;;
41275;SDS011;27010;47.718;12.912;2023-04-03T15:33:48;4.47;;;2.70;;
41275;SDS011;27010;47.718;12.912;2023-04-03T15:36:50;2.90;;;1.93;;
41275;SDS011;27010;47.718;12.912;2023-04-03T15:39:56;2.73;;;2.30;;
41275;SDS011;27010;47.718;12.912;2023-04-03T15:42:58;3.47;;;2.27;;
41275;SDS011;27010;47.718;12.912;2023-04-03T15:46:00;3.63;;;2.40;;
41275;SDS011;27010;47.718;12.912;2023-04-03T15:49:03;4.73;;;2.67;;
41275;SDS011;27010;47.718;12.912;2023-04-03T15:52:05;4.00;;;2.37;;
41275;SDS011;27010;47.718;12.912;2023-04-03T15:55:07;4.87;;;2.80;;
41275;SDS011;27010;47.718;12.912;2023-04-03T15:58:09;2.67;;;2.07;;
41275;SDS011;27010;47.718;12.912;2023-04-03T16:01:12;3.30;;;2.13;;
41275;SDS011;27010;47.718;12.912;2023-04-03T16:04:15;2.87;;;2.20;;
41275;SDS011;27010;47.718;12.912;2023-04-03T16:07:19;1.90;;;1.80;;
41275;SDS011;27010;47.718;12.912;2023-04-03T16:10:22;4.83;;;2.47;;
41275;SDS011;27010;47.718;12.912;2023-04-03T16:13:24;3.23;;;2.30;;
41275;SDS011;27010;47.718;12.912;2023-04-03T16:16:26;7.23;;;2.27;;
41275;SDS011;27010;47.718;12.912;2023-04-03T16:19:29;4.00;;;2.27;;
41275;SDS011;27010;47.718;12.912;2023-04-03T16:22:31;3.03;;;2.33;;
41275;SDS011;27010;47.718;12.912;2023-04-03T16:25:34;3.37;;;2.03;;
41275;SDS011;27010;47.718;12.912;2023-04-03T16:28:36;3.07;;;1.77;;
41275;SDS011;27010;47.718;12.912;2023-04-03T16:31:38;6.47;;;2.23;;
41275;SDS011;27010;47.718;12.912;2023-04-03T16:34:41;4.23;;;1.57;;
41275;SDS011;27010;47.718;12.912;2023-04-03T16:37:44;3.33;;;1.93;;
41275;SDS011;27010;47.718;12.912;2023-04-03T16:40:46;2.93;;;2.23;;
41275;SDS011;27010;47.718;12.912;2023-04-03T16:43:48;3.50;;;1.50;;
41275;SDS011;27010;47.718;12.912;2023-04-03T16:46:52;2.63;;;1.90;;
41275;SDS011;27010;47.718;12.912;2023-04-03T16:49:54;2.53;;;1.53;;
41275;SDS011;27010;47.718;12.912;2023-04-03T16:52:56;4.90;;;1.73;;
41275;SDS011;27010;47.718;12.912;2023-04-03T16:55:58;4.53;;;1.90;;
41275;SDS011;27010;47.718;12.912;2023-04-03T16:59:00;2.57;;;1.70;;
41275;SDS011;27010;47.718;12.912;2023-04-03T17:02:03;6.70;;;2.10;;
41275;SDS011;27010;47.718;12.912;2023-04-03T17:05:05;2.70;;;2.20;;
41275;SDS011;27010;47.718;12.912;2023-04-03T17:08:07;3.83;;;2.73;;
41275;SDS011;27010;47.718;12.912;2023-04-03T17:11:10;3.93;;;2.67;;
41275;SDS011;27010;47.718;12.912;2023-04-03T17:14:12;2.47;;;2.07;;
41275;SDS011;27010;47.718;12.912;2023-04-03T17:17:14;4.03;;;2.87;;
41275;SDS011;27010;47.718;12.912;2023-04-03T17:20:21;4.10;;;2.03;;
41275;SDS011;27010;47.718;12.912;2023-04-03T17:23:24;3.07;;;2.10;;
41275;SDS011;27010;47.718;12.912;2023-04-03T17:26:27;3.43;;;2.00;;
41275;SDS011;27010;47.718;12.912;2023-04-03T17:29:29;3.87;;;2.13;;
41275;SDS011;27010;47.718;12.912;2023-04-03T17:32:39;4.83;;;3.17;;
41275;SDS011;27010;47.718;12.912;2023-04-03T17:35:41;5.27;;;2.73;;
41275;SDS011;27010;47.718;12.912;2023-04-03T17:38:44;3.27;;;2.20;;
41275;SDS011;27010;47.718;12.912;2023-04-03T17:41:49;4.37;;;2.47;;
41275;SDS011;27010;47.718;12.912;2023-04-03T17:44:51;4.13;;;2.57;;
41275;SDS011;27010;47.718;12.912;2023-04-03T17:47:53;5.13;;;2.87;;
41275;SDS011;27010;47.718;12.912;2023-04-03T17:50:58;4.63;;;1.80;;
41275;SDS011;27010;47.718;12.912;2023-04-03T17:54:00;3.30;;;1.97;;
41275;SDS011;27010;47.718;12.912;2023-04-03T17:57:04;3.77;;;2.17;;
41275;SDS011;27010;47.718;12.912;2023-04-03T18:00:06;4.90;;;2.20;;
41275;SDS011;27010;47.718;12.912;2023-04-03T18:03:09;2.97;;;2.10;;
41275;SDS011;27010;47.718;12.912;2023-04-03T18:06:13;4.07;;;2.60;;
41275;SDS011;27010;47.718;12.912;2023-04-03T18:09:17;3.80;;;2.30;;
41275;SDS011;27010;47.718;12.912;2023-04-03T18:12:22;3.93;;;2.47;;
41275;SDS011;27010;47.718;12.912;2023-04-03T18:15:24;5.63;;;2.20;;
41275;SDS011;27010;47.718;12.912;2023-04-03T18:18:27;2.93;;;2.20;;
41275;SDS011;27010;47.718;12.912;2023-04-03T18:21:29;4.17;;;2.60;;
41275;SDS011;27010;47.718;12.912;2023-04-03T18:24:31;3.27;;;2.17;;
41275;SDS011;27010;47.718;12.912;2023-04-03T18:27:34;3.80;;;2.50;;
41275;SDS011;27010;47.718;12.912;2023-04-03T18:30:36;3.47;;;2.37;;
41275;SDS011;27010;47.718;12.912;2023-04-03T18:33:39;3.03;;;2.40;;
41275;SDS011;27010;47.718;12.912;2023-04-03T18:36:41;4.77;;;3.60;;
41275;SDS011;27010;47.718;12.912;2023-04-03T18:39:43;3.07;;;2.70;;
41275;SDS011;27010;47.718;12.912;2023-04-03T18:42:45;4.90;;;3.10;;
41275;SDS011;27010;47.718;12.912;2023-04-03T18:45:47;3.37;;;2.20;;
41275;SDS011;27010;47.718;12.912;2023-04-03T18:48:52;2.57;;;2.20;;
41275;SDS011;27010;47.718;12.912;2023-04-03T18:51:54;4.20;;;2.57;;
41275;SDS011;27010;47.718;12.912;2023-04-03T18:54:56;4.27;;;2.43;;
41275;SDS011;27010;47.718;12.912;2023-04-03T18:57:59;2.60;;;2.07;;
41275;SDS011;27010;47.718;12.912;2023-04-03T19:01:01;4.50;;;2.33;;
41275;SDS011;27010;47.718;12.912;2023-04-03T19:04:04;5.07;;;2.63;;
41275;SDS011;27010;47.718;12.912;2023-04-03T19:07:07;4.07;;;2.07;;
41275;SDS011;27010;47.718;12.912;2023-04-03T19:10:13;3.87;;;2.77;;
41275;SDS011;27010;47.718;12.912;2023-04-03T19:13:20;3.20;;;2.53;;
41275;SDS011;27010;47.718;12.912;2023-04-03T19:16:22;3.67;;;2.90;;
41275;SDS011;27010;47.718;12.912;2023-04-03T19:19:25;4.17;;;2.23;;
41275;SDS011;27010;47.718;12.912;2023-04-03T19:22:28;4.00;;;2.47;;
41275;SDS011;27010;47.718;12.912;2023-04-03T19:25:31;3.83;;;2.70;;